createdAt,value
2018-06-14T00:04:42.835Z,13.20
2018-06-14T00:09:27.431Z,13.20
2018-06-14T00:14:11.943Z,13.20
2018-06-14T00:18:56.324Z,13.20
2018-06-14T00:23:40.676Z,13.20
2018-06-14T00:28:25.026Z,13.20
2018-06-14T00:33:09.692Z,13.10
2018-06-14T00:37:54.389Z,13.10
2018-06-14T00:42:38.923Z,13.10
2018-06-14T00:47:23.450Z,13.10
2018-06-14T00:52:07.868Z,13.10
2018-06-14T00:57:03.407Z,13.10
2018-06-14T01:01:48.538Z,13.10
2018-06-14T01:06:34.239Z,13.10
2018-06-14T01:11:19.598Z,13.00
2018-06-14T01:16:04.117Z,13.00
2018-06-14T01:20:49.104Z,13.00
2018-06-14T01:25:33.638Z,13.10
2018-06-14T01:30:18.044Z,13.10
2018-06-14T01:35:02.580Z,13.00
2018-06-14T01:39:47.001Z,13.00
2018-06-14T01:44:31.545Z,13.00
2018-06-14T01:49:16.028Z,12.90
2018-06-14T01:54:00.403Z,13.00
2018-06-14T01:58:44.703Z,13.10
2018-06-14T02:03:29.137Z,13.10
2018-06-14T02:08:13.587Z,13.00
2018-06-14T02:12:58.431Z,13.00
2018-06-14T02:17:43.043Z,13.00
2018-06-14T02:22:27.804Z,12.90
2018-06-14T02:27:12.451Z,13.00
2018-06-14T02:31:57.019Z,13.00
2018-06-14T02:36:41.493Z,12.90
2018-06-14T02:41:26.002Z,12.90
2018-06-14T02:46:10.784Z,12.90
2018-06-14T02:55:39.326Z,12.90
2018-06-14T03:00:23.995Z,13.00
2018-06-14T03:05:08.651Z,13.00
2018-06-14T03:09:53.201Z,12.90
2018-06-14T03:14:37.646Z,12.90
2018-06-14T03:19:22.101Z,13.00
2018-06-14T03:24:06.643Z,13.00
2018-06-14T03:28:51.290Z,13.00
2018-06-14T03:33:35.992Z,13.00
2018-06-14T03:38:20.505Z,13.00
2018-06-14T03:43:05.094Z,12.90
2018-06-14T03:47:50.793Z,13.00
2018-06-14T03:52:35.216Z,13.00
2018-06-14T03:57:19.838Z,13.00
2018-06-14T04:02:04.580Z,13.00
2018-06-14T04:06:49.110Z,13.10
2018-06-14T04:11:33.486Z,13.10
2018-06-14T04:16:17.976Z,13.20
2018-06-14T04:21:02.622Z,13.20
2018-06-14T04:25:47.036Z,13.30
2018-06-14T04:30:31.520Z,13.30
2018-06-14T04:35:15.920Z,13.20
2018-06-14T04:40:00.488Z,13.30
2018-06-14T04:44:45.072Z,13.30
2018-06-14T04:49:29.509Z,13.40
2018-06-14T04:54:13.941Z,13.40
2018-06-14T04:58:58.525Z,13.40
2018-06-14T05:03:43.408Z,13.40
2018-06-14T05:08:27.950Z,13.50
2018-06-14T05:13:12.431Z,13.60
2018-06-14T05:17:56.991Z,13.60
2018-06-14T05:22:41.372Z,13.60
2018-06-14T05:27:25.918Z,13.70
2018-06-14T05:32:10.280Z,13.80
2018-06-14T05:36:54.728Z,13.80
2018-06-14T05:41:40.496Z,13.90
2018-06-14T05:46:24.922Z,14.00
2018-06-14T05:51:09.275Z,14.20
2018-06-14T05:55:53.765Z,14.30
2018-06-14T06:00:38.240Z,14.30
2018-06-14T06:05:22.671Z,14.50
2018-06-14T06:10:07.992Z,14.70
2018-06-14T06:14:52.415Z,14.70
2018-06-14T06:19:36.869Z,14.70
2018-06-14T06:24:21.557Z,14.60
2018-06-14T06:29:06.127Z,14.90
2018-06-14T06:33:50.715Z,14.90
2018-06-14T06:38:35.086Z,15.10
2018-06-14T06:43:19.442Z,15.20
2018-06-14T06:48:03.885Z,15.30
2018-06-14T06:52:48.293Z,15.40
2018-06-14T06:57:33.977Z,15.40
2018-06-14T07:02:19.513Z,15.40
2018-06-14T07:07:03.958Z,15.30
2018-06-14T07:11:48.322Z,15.20
2018-06-14T07:16:33.004Z,15.30
2018-06-14T07:21:17.309Z,15.50
2018-06-14T07:26:01.893Z,15.80
2018-06-14T07:30:46.255Z,16.00
2018-06-14T07:35:30.650Z,16.10
2018-06-14T07:40:15.011Z,16.30
2018-06-14T07:44:59.559Z,16.60
2018-06-14T07:49:44.183Z,16.70
2018-06-14T07:54:28.914Z,17.20
2018-06-14T07:59:13.342Z,17.30
2018-06-14T08:03:57.679Z,17.70
2018-06-14T08:08:42.047Z,18.00
2018-06-14T08:13:26.354Z,18.60
2018-06-14T08:18:11.730Z,19.40
2018-06-14T08:22:56.149Z,19.90
2018-06-14T08:27:40.852Z,20.10
2018-06-14T08:32:25.255Z,20.70
2018-06-14T08:37:09.582Z,21.30
2018-06-14T08:41:54.001Z,21.70
2018-06-14T08:46:38.623Z,21.20
2018-06-14T08:51:23.116Z,20.40
2018-06-14T08:56:07.541Z,19.90
2018-06-14T09:00:51.945Z,19.40
2018-06-14T09:05:36.280Z,19.70
2018-06-14T09:10:20.697Z,19.90
2018-06-14T09:15:05.043Z,20.40
2018-06-14T09:19:49.509Z,20.80
2018-06-14T09:24:33.963Z,21.70
2018-06-14T09:29:18.561Z,21.90
2018-06-14T09:34:02.948Z,21.40
2018-06-14T09:38:47.803Z,21.20
2018-06-14T09:43:32.226Z,21.00
2018-06-14T09:48:16.870Z,20.90
2018-06-14T09:53:01.282Z,20.70
2018-06-14T09:57:45.814Z,20.80
2018-06-14T10:02:30.513Z,21.00
2018-06-14T10:07:15.154Z,21.00
2018-06-14T10:11:59.605Z,21.60
2018-06-14T10:16:43.952Z,22.20
2018-06-14T10:21:28.425Z,22.40
2018-06-14T10:26:12.741Z,22.60
2018-06-14T10:30:57.132Z,22.50
2018-06-14T10:35:41.541Z,22.00
2018-06-14T10:40:25.982Z,22.50
2018-06-14T10:45:10.457Z,23.10
2018-06-14T10:49:54.982Z,22.80
2018-06-14T10:54:39.418Z,24.00
2018-06-14T10:59:23.831Z,24.50
2018-06-14T11:04:09.204Z,25.10
2018-06-14T11:08:53.614Z,24.90
2018-06-14T11:13:37.964Z,24.20
2018-06-14T11:18:22.570Z,23.40
2018-06-14T11:23:07.234Z,23.20
2018-06-14T11:27:51.745Z,22.90
2018-06-14T11:32:36.172Z,23.10
2018-06-14T11:37:20.648Z,23.80
2018-06-14T11:42:04.934Z,23.40
2018-06-14T11:46:49.272Z,23.30
2018-06-14T11:51:33.683Z,23.40
2018-06-14T11:56:18.079Z,23.80
2018-06-14T12:01:02.513Z,23.20
2018-06-14T12:05:46.925Z,23.30
2018-06-14T12:10:31.216Z,23.60
2018-06-14T12:15:15.673Z,23.00
2018-06-14T12:20:00.047Z,22.40
2018-06-14T12:24:44.487Z,22.50
2018-06-14T12:29:28.835Z,24.00
2018-06-14T12:34:13.225Z,24.50
2018-06-14T12:38:57.599Z,24.40
2018-06-14T12:43:41.966Z,23.90
2018-06-14T12:48:26.483Z,23.50
2018-06-14T12:53:10.839Z,23.10
2018-06-14T12:57:55.304Z,22.70
2018-06-14T13:02:40.761Z,23.20
2018-06-14T13:07:25.358Z,23.50
2018-06-14T13:12:09.935Z,23.50
2018-06-14T13:16:54.462Z,24.40
2018-06-14T13:21:38.816Z,24.40
2018-06-14T13:26:23.456Z,25.00
2018-06-14T13:31:07.887Z,25.50
2018-06-14T13:35:53.504Z,24.60
2018-06-14T13:40:38.177Z,23.90
2018-06-14T13:45:22.543Z,24.30
2018-06-14T13:50:07.031Z,24.90
2018-06-14T13:54:51.543Z,24.10
2018-06-14T13:59:36.012Z,23.70
2018-06-14T14:04:20.498Z,23.20
2018-06-14T14:09:07.984Z,22.80
2018-06-14T14:13:52.363Z,23.00
2018-06-14T14:18:36.773Z,23.00
2018-06-14T14:23:21.195Z,23.40
2018-06-14T14:28:05.571Z,24.80
2018-06-14T14:32:50.197Z,26.30
2018-06-14T14:37:34.802Z,26.50
2018-06-14T14:42:19.239Z,26.70
2018-06-14T14:47:03.610Z,26.00
2018-06-14T14:51:47.912Z,25.70
2018-06-14T14:56:32.364Z,25.80
2018-06-14T15:01:16.778Z,25.50
2018-06-14T15:06:01.223Z,25.50
2018-06-14T15:10:45.756Z,25.30
2018-06-14T15:15:30.235Z,24.70
2018-06-14T15:20:22.993Z,25.10
2018-06-14T15:25:07.395Z,24.70
2018-06-14T15:29:51.818Z,24.70
2018-06-14T15:34:36.325Z,24.60
2018-06-14T15:39:20.790Z,24.10
2018-06-14T15:44:05.168Z,23.60
2018-06-14T15:48:49.657Z,23.30
2018-06-14T15:53:34.178Z,24.80
2018-06-14T15:58:18.887Z,26.20
2018-06-14T16:03:03.391Z,26.00
2018-06-14T16:07:48.358Z,25.30
2018-06-14T16:12:32.772Z,25.10
2018-06-14T16:17:17.145Z,24.60
2018-06-14T16:22:01.568Z,26.10
2018-06-14T16:26:46.011Z,26.80
2018-06-14T16:31:30.582Z,26.60
2018-06-14T16:36:14.916Z,27.00
2018-06-14T16:40:59.406Z,27.40
2018-06-14T16:45:44.008Z,28.00
2018-06-14T16:50:28.414Z,27.90
2018-06-14T16:55:12.774Z,27.70
2018-06-14T16:59:57.182Z,27.60
2018-06-14T17:04:41.568Z,27.90
2018-06-14T17:09:25.974Z,28.60
2018-06-14T17:14:10.384Z,28.20
2018-06-14T17:18:54.806Z,27.80
2018-06-14T17:23:39.209Z,28.30
2018-06-14T17:28:23.742Z,27.90
2018-06-14T17:33:08.149Z,28.20
2018-06-14T17:37:52.856Z,26.90
2018-06-14T17:42:37.387Z,26.20
2018-06-14T17:47:21.764Z,26.20
2018-06-14T17:52:06.368Z,25.90
2018-06-14T17:56:51.026Z,24.80
2018-06-14T18:01:35.569Z,23.50
2018-06-14T18:06:20.100Z,22.70
2018-06-14T18:11:04.487Z,21.70
2018-06-14T18:15:48.849Z,20.60
2018-06-14T18:20:33.277Z,19.80
2018-06-14T18:25:17.755Z,19.20
2018-06-14T18:30:02.202Z,18.80
2018-06-14T18:34:46.707Z,18.40
2018-06-14T18:39:31.130Z,17.90
2018-06-14T18:44:15.864Z,17.40
2018-06-14T18:49:00.259Z,16.90
2018-06-14T18:53:44.716Z,16.50
2018-06-14T18:58:29.181Z,16.20
2018-06-14T19:03:13.603Z,15.90
2018-06-14T19:07:58.060Z,15.50
2018-06-14T19:12:42.580Z,15.20
2018-06-14T19:17:27.001Z,15.00
2018-06-14T19:22:11.372Z,15.10
2018-06-14T19:26:55.865Z,15.00
2018-06-14T19:31:40.215Z,14.60
2018-06-14T19:36:24.722Z,14.40
2018-06-14T19:41:09.825Z,14.20
2018-06-14T19:45:54.313Z,13.90
2018-06-14T19:50:38.746Z,13.80
2018-06-14T19:55:23.347Z,13.60
2018-06-14T20:00:07.967Z,13.40
2018-06-14T20:04:52.431Z,13.20
2018-06-14T20:09:37.017Z,13.00
2018-06-14T20:14:21.533Z,13.00
2018-06-14T20:19:06.012Z,12.90
2018-06-14T20:23:50.395Z,12.80
2018-06-14T20:28:34.844Z,12.80
2018-06-14T20:33:19.425Z,13.20
2018-06-14T20:38:03.935Z,13.70
2018-06-14T20:42:48.343Z,14.00
2018-06-14T20:47:32.919Z,14.00
2018-06-14T20:52:17.340Z,14.00
2018-06-14T20:57:01.903Z,13.90
2018-06-14T21:01:46.326Z,13.90
2018-06-14T21:06:30.721Z,13.80
2018-06-14T21:11:15.119Z,13.70
2018-06-14T21:15:59.567Z,13.60
2018-06-14T21:20:43.984Z,13.70
2018-06-14T21:25:28.354Z,13.60
2018-06-14T21:30:12.912Z,13.50
2018-06-14T21:34:57.331Z,13.50
2018-06-14T21:39:41.768Z,13.40
2018-06-14T21:44:26.058Z,13.30
2018-06-14T21:49:10.414Z,13.20
2018-06-14T21:53:54.882Z,13.10
2018-06-14T21:58:39.288Z,13.10
2018-06-14T22:03:28.724Z,13.00
2018-06-14T22:08:13.176Z,13.00
2018-06-14T22:12:57.464Z,13.10
2018-06-14T22:17:41.904Z,12.90
2018-06-14T22:22:26.342Z,12.80
2018-06-14T22:27:10.748Z,12.80
2018-06-14T22:31:55.319Z,12.60
2018-06-14T22:36:39.970Z,12.70
2018-06-14T22:41:24.415Z,12.60
2018-06-14T22:46:08.841Z,12.50
2018-06-14T22:51:04.194Z,12.40
2018-06-14T22:55:48.559Z,12.40
2018-06-14T23:05:26.105Z,12.30
2018-06-14T23:10:23.839Z,12.30
2018-06-14T23:15:08.298Z,12.30
2018-06-14T23:19:52.649Z,12.40
2018-06-14T23:24:37.064Z,12.20
2018-06-14T23:29:21.421Z,12.20
2018-06-14T23:34:05.802Z,12.10
2018-06-14T23:38:50.135Z,12.10
2018-06-14T23:43:34.564Z,11.90
2018-06-14T23:48:18.827Z,11.90
2018-06-14T23:53:03.335Z,12.00
2018-06-14T23:57:47.732Z,12.10
